Redbird, Oklahoma
Current Conditions -  °F | °C
As of 11:53 PM on Tuesday 27 Jan 2015 (Local Time) from KMKO Reporting Station
Clear Clear  
Wind Chill: 45°   Ceiling: Unl
Heat Index: 48°   Visibility: 10mi
Dew Point: 31°   Wind: 7mph
Humidity: 52%   Direction: 170°S
Pressure: 30.09"   Gusts: NA
Location:  35.89°N, 95.59°W
Report Text: KMKO 280553Z AUTO 17006KT 10SM CLR 09/M01 A3009 RMK AO2 SLP189 T00891006 10167 20089 402170006 53001
Loading
Personal Weather Stations






























Interactive Weather Map New forecast layout! Learn more

10-Day Weather Forecast

Advertisements
Track Severe Weather on mobile